sensor_id;sensor_type;location;lat;lon;timestamp;P1;durP1;ratioP1;P2;durP2;ratioP2
5890;SDS011;2971;52.420;7.080;2022-10-16T00:01:22;9.07;;;3.37;;
5890;SDS011;2971;52.420;7.080;2022-10-16T00:03:49;6.23;;;3.00;;
5890;SDS011;2971;52.420;7.080;2022-10-16T00:06:16;7.40;;;3.10;;
5890;SDS011;2971;52.420;7.080;2022-10-16T00:08:43;8.70;;;3.20;;
5890;SDS011;2971;52.420;7.080;2022-10-16T00:13:36;6.80;;;3.27;;
5890;SDS011;2971;52.420;7.080;2022-10-16T00:16:03;5.37;;;2.87;;
5890;SDS011;2971;52.420;7.080;2022-10-16T00:18:29;6.70;;;3.30;;
5890;SDS011;2971;52.420;7.080;2022-10-16T00:20:54;9.40;;;3.00;;
5890;SDS011;2971;52.420;7.080;2022-10-16T00:23:20;10.17;;;3.23;;
5890;SDS011;2971;52.420;7.080;2022-10-16T00:25:56;7.60;;;3.00;;
5890;SDS011;2971;52.420;7.080;2022-10-16T00:28:22;6.40;;;3.10;;
5890;SDS011;2971;52.420;7.080;2022-10-16T00:30:48;5.23;;;2.80;;
5890;SDS011;2971;52.420;7.080;2022-10-16T00:33:13;6.10;;;3.00;;
5890;SDS011;2971;52.420;7.080;2022-10-16T00:35:38;6.13;;;2.90;;
5890;SDS011;2971;52.420;7.080;2022-10-16T00:38:04;6.27;;;3.13;;
5890;SDS011;2971;52.420;7.080;2022-10-16T00:40:29;6.13;;;2.90;;
5890;SDS011;2971;52.420;7.080;2022-10-16T00:42:54;6.10;;;3.07;;
5890;SDS011;2971;52.420;7.080;2022-10-16T00:45:20;6.87;;;3.00;;
5890;SDS011;2971;52.420;7.080;2022-10-16T00:47:45;5.27;;;2.70;;
5890;SDS011;2971;52.420;7.080;2022-10-16T00:52:47;5.77;;;2.63;;
5890;SDS011;2971;52.420;7.080;2022-10-16T00:55:14;6.30;;;2.87;;
5890;SDS011;2971;52.420;7.080;2022-10-16T00:57:39;6.13;;;3.20;;
5890;SDS011;2971;52.420;7.080;2022-10-16T01:00:06;8.03;;;2.80;;
5890;SDS011;2971;52.420;7.080;2022-10-16T01:02:33;5.20;;;2.73;;
5890;SDS011;2971;52.420;7.080;2022-10-16T01:04:58;5.93;;;3.00;;
5890;SDS011;2971;52.420;7.080;2022-10-16T01:10:26;10.20;;;3.53;;
5890;SDS011;2971;52.420;7.080;2022-10-16T01:15:40;5.17;;;2.70;;
5890;SDS011;2971;52.420;7.080;2022-10-16T01:31:29;5.33;;;3.00;;
5890;SDS011;2971;52.420;7.080;2022-10-16T01:34:06;7.80;;;2.93;;
5890;SDS011;2971;52.420;7.080;2022-10-16T01:36:39;5.57;;;3.07;;
5890;SDS011;2971;52.420;7.080;2022-10-16T01:39:08;7.67;;;2.90;;
5890;SDS011;2971;52.420;7.080;2022-10-16T01:41:37;5.90;;;2.73;;
5890;SDS011;2971;52.420;7.080;2022-10-16T01:44:10;6.40;;;3.20;;
5890;SDS011;2971;52.420;7.080;2022-10-16T01:46:39;5.30;;;3.17;;
5890;SDS011;2971;52.420;7.080;2022-10-16T01:49:06;6.77;;;2.90;;
5890;SDS011;2971;52.420;7.080;2022-10-16T01:51:34;5.27;;;3.33;;
5890;SDS011;2971;52.420;7.080;2022-10-16T01:54:00;6.77;;;3.20;;
5890;SDS011;2971;52.420;7.080;2022-10-16T01:56:26;6.63;;;3.57;;
5890;SDS011;2971;52.420;7.080;2022-10-16T01:58:58;7.40;;;3.70;;
5890;SDS011;2971;52.420;7.080;2022-10-16T02:01:30;7.63;;;3.90;;
5890;SDS011;2971;52.420;7.080;2022-10-16T02:03:59;12.63;;;4.40;;
5890;SDS011;2971;52.420;7.080;2022-10-16T02:06:28;6.00;;;4.00;;
5890;SDS011;2971;52.420;7.080;2022-10-16T02:08:54;7.57;;;4.03;;
5890;SDS011;2971;52.420;7.080;2022-10-16T02:11:20;9.90;;;4.87;;
5890;SDS011;2971;52.420;7.080;2022-10-16T02:13:46;8.30;;;5.07;;
5890;SDS011;2971;52.420;7.080;2022-10-16T02:16:15;8.90;;;4.87;;
5890;SDS011;2971;52.420;7.080;2022-10-16T02:18:40;8.97;;;5.17;;
5890;SDS011;2971;52.420;7.080;2022-10-16T02:26:19;9.07;;;5.30;;
5890;SDS011;2971;52.420;7.080;2022-10-16T02:29:04;8.53;;;5.43;;
5890;SDS011;2971;52.420;7.080;2022-10-16T02:31:33;8.33;;;5.70;;
5890;SDS011;2971;52.420;7.080;2022-10-16T02:34:00;9.53;;;6.07;;
5890;SDS011;2971;52.420;7.080;2022-10-16T02:36:27;9.93;;;6.53;;
5890;SDS011;2971;52.420;7.080;2022-10-16T02:38:53;8.13;;;6.37;;
5890;SDS011;2971;52.420;7.080;2022-10-16T02:41:20;10.13;;;6.53;;
5890;SDS011;2971;52.420;7.080;2022-10-16T02:43:46;11.53;;;7.50;;
5890;SDS011;2971;52.420;7.080;2022-10-16T02:46:11;9.43;;;7.03;;
5890;SDS011;2971;52.420;7.080;2022-10-16T02:48:37;11.57;;;7.20;;
5890;SDS011;2971;52.420;7.080;2022-10-16T02:51:02;10.93;;;7.20;;
5890;SDS011;2971;52.420;7.080;2022-10-16T02:53:28;8.93;;;7.63;;
5890;SDS011;2971;52.420;7.080;2022-10-16T02:55:53;11.17;;;8.20;;
5890;SDS011;2971;52.420;7.080;2022-10-16T02:58:18;13.50;;;8.63;;
5890;SDS011;2971;52.420;7.080;2022-10-16T03:00:44;10.23;;;8.03;;
5890;SDS011;2971;52.420;7.080;2022-10-16T03:03:10;10.40;;;7.90;;
5890;SDS011;2971;52.420;7.080;2022-10-16T03:05:35;12.13;;;8.53;;
5890;SDS011;2971;52.420;7.080;2022-10-16T03:08:00;11.47;;;8.73;;
5890;SDS011;2971;52.420;7.080;2022-10-16T03:10:26;9.53;;;8.40;;
5890;SDS011;2971;52.420;7.080;2022-10-16T03:12:52;11.80;;;7.83;;
5890;SDS011;2971;52.420;7.080;2022-10-16T03:15:18;11.27;;;7.80;;
5890;SDS011;2971;52.420;7.080;2022-10-16T03:17:43;11.53;;;8.40;;
5890;SDS011;2971;52.420;7.080;2022-10-16T03:20:08;12.57;;;7.87;;
5890;SDS011;2971;52.420;7.080;2022-10-16T03:22:34;10.27;;;7.53;;
5890;SDS011;2971;52.420;7.080;2022-10-16T03:24:59;12.27;;;7.90;;
5890;SDS011;2971;52.420;7.080;2022-10-16T03:27:25;9.83;;;6.80;;
5890;SDS011;2971;52.420;7.080;2022-10-16T03:29:50;10.20;;;7.33;;
5890;SDS011;2971;52.420;7.080;2022-10-16T03:32:16;8.50;;;6.97;;
5890;SDS011;2971;52.420;7.080;2022-10-16T03:34:41;9.17;;;6.23;;
5890;SDS011;2971;52.420;7.080;2022-10-16T03:37:06;7.13;;;6.13;;
5890;SDS011;2971;52.420;7.080;2022-10-16T03:39:32;7.40;;;5.83;;
5890;SDS011;2971;52.420;7.080;2022-10-16T03:41:57;7.23;;;5.63;;
5890;SDS011;2971;52.420;7.080;2022-10-16T03:44:23;7.77;;;5.90;;
5890;SDS011;2971;52.420;7.080;2022-10-16T03:46:48;6.87;;;4.97;;
5890;SDS011;2971;52.420;7.080;2022-10-16T03:49:13;7.90;;;5.20;;
5890;SDS011;2971;52.420;7.080;2022-10-16T03:51:39;6.20;;;5.30;;
5890;SDS011;2971;52.420;7.080;2022-10-16T03:54:04;12.07;;;5.47;;
5890;SDS011;2971;52.420;7.080;2022-10-16T03:56:29;6.67;;;4.70;;
5890;SDS011;2971;52.420;7.080;2022-10-16T03:58:55;8.90;;;5.23;;
5890;SDS011;2971;52.420;7.080;2022-10-16T04:01:22;5.63;;;4.60;;
5890;SDS011;2971;52.420;7.080;2022-10-16T04:03:47;6.33;;;4.57;;
5890;SDS011;2971;52.420;7.080;2022-10-16T04:06:12;6.93;;;4.63;;
5890;SDS011;2971;52.420;7.080;2022-10-16T04:08:38;6.10;;;4.53;;
5890;SDS011;2971;52.420;7.080;2022-10-16T04:11:04;5.67;;;4.60;;
5890;SDS011;2971;52.420;7.080;2022-10-16T04:13:29;6.37;;;4.30;;
5890;SDS011;2971;52.420;7.080;2022-10-16T04:15:55;7.10;;;4.37;;
5890;SDS011;2971;52.420;7.080;2022-10-16T04:18:20;4.97;;;4.00;;
5890;SDS011;2971;52.420;7.080;2022-10-16T04:20:46;7.00;;;4.07;;
5890;SDS011;2971;52.420;7.080;2022-10-16T04:23:11;6.67;;;4.27;;
5890;SDS011;2971;52.420;7.080;2022-10-16T04:25:36;6.10;;;4.27;;
5890;SDS011;2971;52.420;7.080;2022-10-16T04:28:02;4.53;;;3.77;;
5890;SDS011;2971;52.420;7.080;2022-10-16T04:30:27;4.63;;;3.90;;
5890;SDS011;2971;52.420;7.080;2022-10-16T04:32:53;6.53;;;4.23;;
5890;SDS011;2971;52.420;7.080;2022-10-16T04:35:19;6.37;;;4.10;;
5890;SDS011;2971;52.420;7.080;2022-10-16T04:37:45;5.87;;;3.83;;
5890;SDS011;2971;52.420;7.080;2022-10-16T04:40:11;5.27;;;3.63;;
5890;SDS011;2971;52.420;7.080;2022-10-16T04:42:37;4.00;;;3.57;;
5890;SDS011;2971;52.420;7.080;2022-10-16T04:45:03;6.83;;;4.10;;
5890;SDS011;2971;52.420;7.080;2022-10-16T04:47:30;4.20;;;3.80;;
5890;SDS011;2971;52.420;7.080;2022-10-16T04:49:55;7.17;;;3.97;;
5890;SDS011;2971;52.420;7.080;2022-10-16T04:52:21;6.10;;;3.63;;
5890;SDS011;2971;52.420;7.080;2022-10-16T04:54:49;8.30;;;4.30;;
5890;SDS011;2971;52.420;7.080;2022-10-16T04:57:16;5.03;;;3.67;;
5890;SDS011;2971;52.420;7.080;2022-10-16T04:59:42;8.83;;;4.03;;
5890;SDS011;2971;52.420;7.080;2022-10-16T05:02:08;6.40;;;3.50;;
5890;SDS011;2971;52.420;7.080;2022-10-16T05:04:33;4.97;;;3.70;;
5890;SDS011;2971;52.420;7.080;2022-10-16T05:06:59;4.50;;;3.50;;
5890;SDS011;2971;52.420;7.080;2022-10-16T05:09:24;3.70;;;3.40;;
5890;SDS011;2971;52.420;7.080;2022-10-16T05:11:49;5.00;;;3.40;;
5890;SDS011;2971;52.420;7.080;2022-10-16T05:14:15;6.00;;;3.70;;
5890;SDS011;2971;52.420;7.080;2022-10-16T05:16:40;7.00;;;3.67;;
5890;SDS011;2971;52.420;7.080;2022-10-16T05:19:06;5.33;;;3.83;;
5890;SDS011;2971;52.420;7.080;2022-10-16T05:21:31;5.53;;;3.93;;
5890;SDS011;2971;52.420;7.080;2022-10-16T05:23:56;4.57;;;3.60;;
5890;SDS011;2971;52.420;7.080;2022-10-16T05:26:22;4.47;;;3.83;;
5890;SDS011;2971;52.420;7.080;2022-10-16T05:28:47;6.77;;;3.40;;
5890;SDS011;2971;52.420;7.080;2022-10-16T05:31:14;5.07;;;3.53;;
5890;SDS011;2971;52.420;7.080;2022-10-16T05:33:40;6.77;;;3.47;;
5890;SDS011;2971;52.420;7.080;2022-10-16T05:36:06;6.60;;;3.57;;
5890;SDS011;2971;52.420;7.080;2022-10-16T05:38:36;6.23;;;3.70;;
5890;SDS011;2971;52.420;7.080;2022-10-16T05:41:02;5.00;;;3.60;;
5890;SDS011;2971;52.420;7.080;2022-10-16T05:43:29;4.03;;;3.50;;
5890;SDS011;2971;52.420;7.080;2022-10-16T05:45:58;6.10;;;3.70;;
5890;SDS011;2971;52.420;7.080;2022-10-16T05:48:28;3.87;;;3.40;;
5890;SDS011;2971;52.420;7.080;2022-10-16T05:51:00;6.63;;;3.67;;
5890;SDS011;2971;52.420;7.080;2022-10-16T05:53:28;5.53;;;4.27;;
5890;SDS011;2971;52.420;7.080;2022-10-16T05:55:55;4.37;;;3.77;;
5890;SDS011;2971;52.420;7.080;2022-10-16T05:58:21;5.27;;;3.67;;
5890;SDS011;2971;52.420;7.080;2022-10-16T06:00:54;6.47;;;3.80;;
5890;SDS011;2971;52.420;7.080;2022-10-16T06:03:20;5.63;;;3.70;;
5890;SDS011;2971;52.420;7.080;2022-10-16T06:05:45;4.17;;;3.23;;
5890;SDS011;2971;52.420;7.080;2022-10-16T06:08:11;5.13;;;3.73;;
5890;SDS011;2971;52.420;7.080;2022-10-16T06:10:36;4.43;;;3.67;;
5890;SDS011;2971;52.420;7.080;2022-10-16T06:13:01;4.13;;;3.73;;
5890;SDS011;2971;52.420;7.080;2022-10-16T06:15:27;5.67;;;3.47;;
5890;SDS011;2971;52.420;7.080;2022-10-16T06:17:52;6.37;;;3.70;;
5890;SDS011;2971;52.420;7.080;2022-10-16T06:20:17;5.17;;;3.63;;
5890;SDS011;2971;52.420;7.080;2022-10-16T06:22:43;3.90;;;3.27;;
5890;SDS011;2971;52.420;7.080;2022-10-16T06:25:08;3.47;;;3.10;;
5890;SDS011;2971;52.420;7.080;2022-10-16T06:27:33;4.80;;;3.20;;
5890;SDS011;2971;52.420;7.080;2022-10-16T06:29:59;6.07;;;3.67;;
5890;SDS011;2971;52.420;7.080;2022-10-16T06:32:24;5.97;;;3.23;;
5890;SDS011;2971;52.420;7.080;2022-10-16T06:34:50;4.10;;;2.83;;
5890;SDS011;2971;52.420;7.080;2022-10-16T06:37:15;3.77;;;3.27;;
5890;SDS011;2971;52.420;7.080;2022-10-16T06:39:40;7.37;;;3.27;;
5890;SDS011;2971;52.420;7.080;2022-10-16T06:42:06;5.27;;;3.40;;
5890;SDS011;2971;52.420;7.080;2022-10-16T06:44:31;3.53;;;3.07;;
5890;SDS011;2971;52.420;7.080;2022-10-16T06:46:57;3.53;;;3.00;;
5890;SDS011;2971;52.420;7.080;2022-10-16T06:49:22;3.67;;;3.10;;
5890;SDS011;2971;52.420;7.080;2022-10-16T06:51:48;6.30;;;3.47;;
5890;SDS011;2971;52.420;7.080;2022-10-16T06:54:14;4.60;;;3.17;;
5890;SDS011;2971;52.420;7.080;2022-10-16T06:56:40;4.47;;;3.37;;
5890;SDS011;2971;52.420;7.080;2022-10-16T06:59:05;6.10;;;3.43;;
5890;SDS011;2971;52.420;7.080;2022-10-16T07:01:31;4.03;;;3.63;;
5890;SDS011;2971;52.420;7.080;2022-10-16T07:03:57;5.70;;;3.50;;
5890;SDS011;2971;52.420;7.080;2022-10-16T07:06:23;6.27;;;3.10;;
5890;SDS011;2971;52.420;7.080;2022-10-16T07:08:49;5.43;;;3.30;;
5890;SDS011;2971;52.420;7.080;2022-10-16T07:11:16;5.80;;;3.00;;
5890;SDS011;2971;52.420;7.080;2022-10-16T07:13:44;6.13;;;3.03;;
5890;SDS011;2971;52.420;7.080;2022-10-16T07:16:14;5.40;;;3.10;;
5890;SDS011;2971;52.420;7.080;2022-10-16T07:18:45;5.53;;;3.00;;
5890;SDS011;2971;52.420;7.080;2022-10-16T07:21:15;5.00;;;3.17;;
5890;SDS011;2971;52.420;7.080;2022-10-16T07:23:42;3.47;;;2.73;;
5890;SDS011;2971;52.420;7.080;2022-10-16T07:26:08;7.00;;;3.07;;
5890;SDS011;2971;52.420;7.080;2022-10-16T07:28:34;6.23;;;2.80;;
5890;SDS011;2971;52.420;7.080;2022-10-16T07:31:09;4.30;;;3.00;;
5890;SDS011;2971;52.420;7.080;2022-10-16T07:33:36;3.77;;;2.93;;
5890;SDS011;2971;52.420;7.080;2022-10-16T07:36:02;6.33;;;3.03;;
5890;SDS011;2971;52.420;7.080;2022-10-16T07:38:28;5.00;;;3.07;;
5890;SDS011;2971;52.420;7.080;2022-10-16T07:41:00;4.47;;;2.90;;
5890;SDS011;2971;52.420;7.080;2022-10-16T07:43:28;4.90;;;2.97;;
5890;SDS011;2971;52.420;7.080;2022-10-16T07:45:53;5.60;;;2.80;;
5890;SDS011;2971;52.420;7.080;2022-10-16T07:48:20;5.50;;;3.30;;
5890;SDS011;2971;52.420;7.080;2022-10-16T07:50:45;4.90;;;2.60;;
5890;SDS011;2971;52.420;7.080;2022-10-16T07:53:11;4.67;;;3.00;;
5890;SDS011;2971;52.420;7.080;2022-10-16T07:55:37;6.00;;;2.77;;
5890;SDS011;2971;52.420;7.080;2022-10-16T07:58:03;5.53;;;2.90;;
5890;SDS011;2971;52.420;7.080;2022-10-16T08:00:29;4.87;;;3.00;;
5890;SDS011;2971;52.420;7.080;2022-10-16T08:02:54;5.37;;;3.10;;
5890;SDS011;2971;52.420;7.080;2022-10-16T08:05:24;4.23;;;3.17;;
5890;SDS011;2971;52.420;7.080;2022-10-16T08:07:50;6.20;;;3.40;;
5890;SDS011;2971;52.420;7.080;2022-10-16T08:10:16;5.90;;;3.23;;
5890;SDS011;2971;52.420;7.080;2022-10-16T08:12:43;4.60;;;2.90;;
5890;SDS011;2971;52.420;7.080;2022-10-16T08:15:08;5.90;;;2.80;;
5890;SDS011;2971;52.420;7.080;2022-10-16T08:17:34;4.87;;;3.30;;
5890;SDS011;2971;52.420;7.080;2022-10-16T08:20:00;5.97;;;2.90;;
5890;SDS011;2971;52.420;7.080;2022-10-16T08:22:25;6.63;;;3.37;;
5890;SDS011;2971;52.420;7.080;2022-10-16T08:24:51;7.87;;;2.80;;
5890;SDS011;2971;52.420;7.080;2022-10-16T08:27:16;6.27;;;3.03;;
5890;SDS011;2971;52.420;7.080;2022-10-16T08:29:41;6.70;;;2.90;;
5890;SDS011;2971;52.420;7.080;2022-10-16T08:32:07;6.37;;;2.97;;
5890;SDS011;2971;52.420;7.080;2022-10-16T08:34:32;6.97;;;3.10;;
5890;SDS011;2971;52.420;7.080;2022-10-16T08:36:59;5.03;;;2.90;;
5890;SDS011;2971;52.420;7.080;2022-10-16T08:39:24;4.77;;;2.83;;
5890;SDS011;2971;52.420;7.080;2022-10-16T08:47:13;4.87;;;2.83;;
5890;SDS011;2971;52.420;7.080;2022-10-16T08:49:41;5.17;;;2.70;;
5890;SDS011;2971;52.420;7.080;2022-10-16T08:52:10;6.83;;;2.73;;
5890;SDS011;2971;52.420;7.080;2022-10-16T08:54:40;5.37;;;2.63;;
5890;SDS011;2971;52.420;7.080;2022-10-16T08:57:09;3.63;;;2.60;;
5890;SDS011;2971;52.420;7.080;2022-10-16T08:59:36;9.93;;;3.20;;
5890;SDS011;2971;52.420;7.080;2022-10-16T09:02:01;4.67;;;2.50;;
5890;SDS011;2971;52.420;7.080;2022-10-16T09:20:06;5.00;;;2.50;;
5890;SDS011;2971;52.420;7.080;2022-10-16T09:22:39;3.50;;;2.40;;
5890;SDS011;2971;52.420;7.080;2022-10-16T09:25:10;5.57;;;2.50;;
5890;SDS011;2971;52.420;7.080;2022-10-16T09:27:37;5.47;;;2.40;;
5890;SDS011;2971;52.420;7.080;2022-10-16T09:30:16;5.77;;;2.33;;
5890;SDS011;2971;52.420;7.080;2022-10-16T09:32:43;6.30;;;2.57;;
5890;SDS011;2971;52.420;7.080;2022-10-16T09:35:13;5.30;;;2.67;;
5890;SDS011;2971;52.420;7.080;2022-10-16T09:37:40;3.57;;;2.27;;
5890;SDS011;2971;52.420;7.080;2022-10-16T09:40:11;4.77;;;2.57;;
5890;SDS011;2971;52.420;7.080;2022-10-16T09:42:38;5.30;;;2.80;;
5890;SDS011;2971;52.420;7.080;2022-10-16T09:45:03;3.27;;;2.10;;
5890;SDS011;2971;52.420;7.080;2022-10-16T09:47:30;3.97;;;2.53;;
5890;SDS011;2971;52.420;7.080;2022-10-16T09:52:27;3.73;;;2.30;;
5890;SDS011;2971;52.420;7.080;2022-10-16T09:54:54;4.20;;;2.50;;
5890;SDS011;2971;52.420;7.080;2022-10-16T09:57:20;5.33;;;2.50;;
5890;SDS011;2971;52.420;7.080;2022-10-16T09:59:54;5.73;;;2.47;;
5890;SDS011;2971;52.420;7.080;2022-10-16T10:02:30;5.00;;;2.37;;
5890;SDS011;2971;52.420;7.080;2022-10-16T10:04:59;3.43;;;2.30;;
5890;SDS011;2971;52.420;7.080;2022-10-16T10:07:28;5.77;;;2.60;;
5890;SDS011;2971;52.420;7.080;2022-10-16T10:09:58;5.73;;;2.33;;
5890;SDS011;2971;52.420;7.080;2022-10-16T10:12:25;6.27;;;2.53;;
5890;SDS011;2971;52.420;7.080;2022-10-16T10:14:52;7.67;;;2.53;;
5890;SDS011;2971;52.420;7.080;2022-10-16T10:17:21;4.80;;;2.60;;
5890;SDS011;2971;52.420;7.080;2022-10-16T10:22:30;6.63;;;2.47;;
5890;SDS011;2971;52.420;7.080;2022-10-16T10:46:17;6.27;;;2.77;;
5890;SDS011;2971;52.420;7.080;2022-10-16T10:49:24;6.10;;;2.60;;
5890;SDS011;2971;52.420;7.080;2022-10-16T10:52:10;7.77;;;2.53;;
5890;SDS011;2971;52.420;7.080;2022-10-16T10:55:02;6.03;;;2.67;;
5890;SDS011;2971;52.420;7.080;2022-10-16T10:57:51;10.20;;;2.73;;
5890;SDS011;2971;52.420;7.080;2022-10-16T11:08:34;9.97;;;2.63;;
5890;SDS011;2971;52.420;7.080;2022-10-16T11:13:32;9.63;;;2.80;;
5890;SDS011;2971;52.420;7.080;2022-10-16T11:16:17;8.10;;;2.90;;
5890;SDS011;2971;52.420;7.080;2022-10-16T11:18:50;7.73;;;2.60;;
5890;SDS011;2971;52.420;7.080;2022-10-16T11:21:20;7.03;;;2.70;;
5890;SDS011;2971;52.420;7.080;2022-10-16T11:26:34;9.23;;;2.87;;
5890;SDS011;2971;52.420;7.080;2022-10-16T11:29:01;10.47;;;2.90;;
5890;SDS011;2971;52.420;7.080;2022-10-16T11:31:29;9.13;;;2.90;;
5890;SDS011;2971;52.420;7.080;2022-10-16T11:46:43;7.63;;;3.00;;
5890;SDS011;2971;52.420;7.080;2022-10-16T11:49:14;8.23;;;2.87;;
5890;SDS011;2971;52.420;7.080;2022-10-16T11:51:42;10.33;;;2.83;;
5890;SDS011;2971;52.420;7.080;2022-10-16T11:54:14;9.70;;;2.80;;
5890;SDS011;2971;52.420;7.080;2022-10-16T11:56:46;8.20;;;2.20;;
5890;SDS011;2971;52.420;7.080;2022-10-16T11:59:24;8.30;;;2.70;;
5890;SDS011;2971;52.420;7.080;2022-10-16T12:10:30;13.47;;;3.20;;
5890;SDS011;2971;52.420;7.080;2022-10-16T12:13:26;6.07;;;2.33;;
5890;SDS011;2971;52.420;7.080;2022-10-16T12:16:08;6.70;;;2.60;;
5890;SDS011;2971;52.420;7.080;2022-10-16T12:18:44;6.27;;;2.50;;
5890;SDS011;2971;52.420;7.080;2022-10-16T12:21:11;9.60;;;2.90;;
5890;SDS011;2971;52.420;7.080;2022-10-16T12:23:47;8.67;;;2.60;;
5890;SDS011;2971;52.420;7.080;2022-10-16T12:26:13;8.80;;;2.43;;
5890;SDS011;2971;52.420;7.080;2022-10-16T12:28:39;7.63;;;2.37;;
5890;SDS011;2971;52.420;7.080;2022-10-16T12:31:06;6.80;;;2.50;;
5890;SDS011;2971;52.420;7.080;2022-10-16T12:33:35;7.07;;;2.30;;
5890;SDS011;2971;52.420;7.080;2022-10-16T12:36:03;9.33;;;2.37;;
5890;SDS011;2971;52.420;7.080;2022-10-16T12:38:59;8.60;;;2.63;;
5890;SDS011;2971;52.420;7.080;2022-10-16T12:41:25;9.23;;;2.60;;
5890;SDS011;2971;52.420;7.080;2022-10-16T12:43:54;6.17;;;2.30;;
5890;SDS011;2971;52.420;7.080;2022-10-16T12:46:21;10.20;;;2.53;;
5890;SDS011;2971;52.420;7.080;2022-10-16T12:48:48;9.00;;;2.67;;
5890;SDS011;2971;52.420;7.080;2022-10-16T12:51:33;7.33;;;2.43;;
5890;SDS011;2971;52.420;7.080;2022-10-16T12:56:50;7.00;;;2.43;;
5890;SDS011;2971;52.420;7.080;2022-10-16T13:05:41;6.50;;;2.57;;
5890;SDS011;2971;52.420;7.080;2022-10-16T13:32:50;9.90;;;2.37;;
5890;SDS011;2971;52.420;7.080;2022-10-16T13:35:25;9.53;;;2.80;;
5890;SDS011;2971;52.420;7.080;2022-10-16T13:40:36;7.87;;;2.20;;
5890;SDS011;2971;52.420;7.080;2022-10-16T13:43:02;7.90;;;2.53;;
5890;SDS011;2971;52.420;7.080;2022-10-16T13:45:27;9.50;;;2.50;;
5890;SDS011;2971;52.420;7.080;2022-10-16T13:48:03;8.87;;;2.70;;
5890;SDS011;2971;52.420;7.080;2022-10-16T13:50:29;7.37;;;2.60;;
5890;SDS011;2971;52.420;7.080;2022-10-16T13:53:09;8.70;;;2.93;;
5890;SDS011;2971;52.420;7.080;2022-10-16T13:55:38;6.90;;;2.50;;
5890;SDS011;2971;52.420;7.080;2022-10-16T13:58:04;7.67;;;2.60;;
5890;SDS011;2971;52.420;7.080;2022-10-16T14:00:32;5.93;;;2.30;;
5890;SDS011;2971;52.420;7.080;2022-10-16T14:03:11;9.03;;;2.60;;
5890;SDS011;2971;52.420;7.080;2022-10-16T14:05:58;8.80;;;2.67;;
5890;SDS011;2971;52.420;7.080;2022-10-16T14:08:26;7.33;;;2.80;;
5890;SDS011;2971;52.420;7.080;2022-10-16T14:10:53;6.70;;;2.30;;
5890;SDS011;2971;52.420;7.080;2022-10-16T14:15:57;7.70;;;2.57;;
5890;SDS011;2971;52.420;7.080;2022-10-16T14:18:25;6.83;;;2.53;;
5890;SDS011;2971;52.420;7.080;2022-10-16T14:20:51;7.73;;;2.53;;
5890;SDS011;2971;52.420;7.080;2022-10-16T14:23:22;8.17;;;2.50;;
5890;SDS011;2971;52.420;7.080;2022-10-16T14:26:05;7.27;;;2.40;;
5890;SDS011;2971;52.420;7.080;2022-10-16T14:28:40;9.30;;;2.60;;
5890;SDS011;2971;52.420;7.080;2022-10-16T14:33:44;7.47;;;2.40;;
5890;SDS011;2971;52.420;7.080;2022-10-16T14:38:35;6.37;;;2.27;;
5890;SDS011;2971;52.420;7.080;2022-10-16T14:41:01;6.87;;;2.60;;
5890;SDS011;2971;52.420;7.080;2022-10-16T14:45:58;5.43;;;2.10;;
5890;SDS011;2971;52.420;7.080;2022-10-16T14:48:24;9.50;;;2.93;;
5890;SDS011;2971;52.420;7.080;2022-10-16T14:50:50;8.37;;;2.33;;
5890;SDS011;2971;52.420;7.080;2022-10-16T14:53:15;8.10;;;2.53;;
5890;SDS011;2971;52.420;7.080;2022-10-16T14:55:41;11.03;;;2.77;;
5890;SDS011;2971;52.420;7.080;2022-10-16T14:58:14;9.13;;;2.83;;
5890;SDS011;2971;52.420;7.080;2022-10-16T15:00:41;9.30;;;2.50;;
5890;SDS011;2971;52.420;7.080;2022-10-16T15:03:06;10.27;;;3.53;;
5890;SDS011;2971;52.420;7.080;2022-10-16T15:05:32;8.17;;;3.10;;
5890;SDS011;2971;52.420;7.080;2022-10-16T15:07:57;8.60;;;3.10;;
5890;SDS011;2971;52.420;7.080;2022-10-16T15:10:23;8.07;;;2.90;;
5890;SDS011;2971;52.420;7.080;2022-10-16T15:12:49;10.27;;;2.93;;
5890;SDS011;2971;52.420;7.080;2022-10-16T15:18:00;8.67;;;2.80;;
5890;SDS011;2971;52.420;7.080;2022-10-16T15:20:30;7.53;;;2.70;;
5890;SDS011;2971;52.420;7.080;2022-10-16T15:23:03;12.03;;;2.80;;
5890;SDS011;2971;52.420;7.080;2022-10-16T15:25:39;8.23;;;2.60;;
5890;SDS011;2971;52.420;7.080;2022-10-16T15:28:07;6.93;;;2.53;;
5890;SDS011;2971;52.420;7.080;2022-10-16T15:30:33;11.97;;;2.77;;
5890;SDS011;2971;52.420;7.080;2022-10-16T15:32:59;8.37;;;2.67;;
5890;SDS011;2971;52.420;7.080;2022-10-16T15:35:24;8.57;;;2.70;;
5890;SDS011;2971;52.420;7.080;2022-10-16T15:37:50;9.67;;;2.97;;
5890;SDS011;2971;52.420;7.080;2022-10-16T15:40:16;8.03;;;2.57;;
5890;SDS011;2971;52.420;7.080;2022-10-16T15:42:42;9.50;;;2.80;;
5890;SDS011;2971;52.420;7.080;2022-10-16T15:45:09;9.50;;;2.87;;
5890;SDS011;2971;52.420;7.080;2022-10-16T15:47:35;8.97;;;2.90;;
5890;SDS011;2971;52.420;7.080;2022-10-16T15:50:01;13.77;;;3.30;;
5890;SDS011;2971;52.420;7.080;2022-10-16T15:52:27;9.80;;;3.00;;
5890;SDS011;2971;52.420;7.080;2022-10-16T15:54:53;8.23;;;2.80;;
5890;SDS011;2971;52.420;7.080;2022-10-16T15:57:19;10.23;;;3.03;;
5890;SDS011;2971;52.420;7.080;2022-10-16T15:59:44;11.43;;;3.30;;
5890;SDS011;2971;52.420;7.080;2022-10-16T16:02:10;6.13;;;2.97;;
5890;SDS011;2971;52.420;7.080;2022-10-16T16:04:35;9.70;;;3.40;;
5890;SDS011;2971;52.420;7.080;2022-10-16T16:07:01;8.93;;;3.50;;
5890;SDS011;2971;52.420;7.080;2022-10-16T16:09:28;11.37;;;3.73;;
5890;SDS011;2971;52.420;7.080;2022-10-16T16:11:54;9.07;;;4.03;;
5890;SDS011;2971;52.420;7.080;2022-10-16T16:14:20;11.90;;;4.20;;
5890;SDS011;2971;52.420;7.080;2022-10-16T16:16:45;11.23;;;4.03;;
5890;SDS011;2971;52.420;7.080;2022-10-16T16:19:11;14.87;;;4.40;;
5890;SDS011;2971;52.420;7.080;2022-10-16T16:21:36;10.30;;;3.83;;
5890;SDS011;2971;52.420;7.080;2022-10-16T16:24:02;10.30;;;4.30;;
5890;SDS011;2971;52.420;7.080;2022-10-16T16:26:33;11.47;;;3.80;;
5890;SDS011;2971;52.420;7.080;2022-10-16T16:29:03;12.03;;;4.10;;
5890;SDS011;2971;52.420;7.080;2022-10-16T16:31:30;8.57;;;3.50;;
5890;SDS011;2971;52.420;7.080;2022-10-16T16:33:57;11.47;;;3.73;;
5890;SDS011;2971;52.420;7.080;2022-10-16T16:36:23;12.03;;;3.50;;
5890;SDS011;2971;52.420;7.080;2022-10-16T16:38:49;11.33;;;4.00;;
5890;SDS011;2971;52.420;7.080;2022-10-16T16:41:16;10.97;;;4.30;;
5890;SDS011;2971;52.420;7.080;2022-10-16T16:43:43;14.83;;;4.90;;
5890;SDS011;2971;52.420;7.080;2022-10-16T16:46:09;11.00;;;4.07;;
5890;SDS011;2971;52.420;7.080;2022-10-16T16:48:34;10.03;;;3.83;;
5890;SDS011;2971;52.420;7.080;2022-10-16T16:51:04;12.57;;;3.93;;
5890;SDS011;2971;52.420;7.080;2022-10-16T16:53:34;11.43;;;4.13;;
5890;SDS011;2971;52.420;7.080;2022-10-16T16:56:03;12.80;;;3.87;;
5890;SDS011;2971;52.420;7.080;2022-10-16T16:58:29;12.43;;;3.50;;
5890;SDS011;2971;52.420;7.080;2022-10-16T17:00:55;10.07;;;3.50;;
5890;SDS011;2971;52.420;7.080;2022-10-16T17:03:21;9.50;;;3.37;;
5890;SDS011;2971;52.420;7.080;2022-10-16T17:05:57;8.63;;;3.60;;
5890;SDS011;2971;52.420;7.080;2022-10-16T17:08:22;15.97;;;5.50;;
5890;SDS011;2971;52.420;7.080;2022-10-16T17:10:47;18.40;;;6.57;;
5890;SDS011;2971;52.420;7.080;2022-10-16T17:13:17;23.13;;;8.90;;
5890;SDS011;2971;52.420;7.080;2022-10-16T17:15:46;16.27;;;5.83;;
5890;SDS011;2971;52.420;7.080;2022-10-16T17:18:12;16.37;;;5.57;;
5890;SDS011;2971;52.420;7.080;2022-10-16T17:20:38;15.20;;;5.77;;
5890;SDS011;2971;52.420;7.080;2022-10-16T17:23:03;16.67;;;6.00;;
5890;SDS011;2971;52.420;7.080;2022-10-16T17:25:29;13.13;;;5.47;;
5890;SDS011;2971;52.420;7.080;2022-10-16T17:27:54;11.43;;;4.37;;
5890;SDS011;2971;52.420;7.080;2022-10-16T17:30:19;10.93;;;4.60;;
5890;SDS011;2971;52.420;7.080;2022-10-16T17:32:45;9.30;;;4.10;;
5890;SDS011;2971;52.420;7.080;2022-10-16T17:35:10;10.87;;;4.03;;
5890;SDS011;2971;52.420;7.080;2022-10-16T17:37:36;10.13;;;3.30;;
5890;SDS011;2971;52.420;7.080;2022-10-16T17:40:01;8.23;;;3.33;;
5890;SDS011;2971;52.420;7.080;2022-10-16T17:42:27;10.97;;;3.43;;
5890;SDS011;2971;52.420;7.080;2022-10-16T17:44:52;15.43;;;6.20;;
5890;SDS011;2971;52.420;7.080;2022-10-16T17:47:17;17.43;;;6.00;;
5890;SDS011;2971;52.420;7.080;2022-10-16T17:49:43;16.43;;;5.53;;
5890;SDS011;2971;52.420;7.080;2022-10-16T17:52:08;16.50;;;6.80;;
5890;SDS011;2971;52.420;7.080;2022-10-16T17:54:33;15.90;;;6.80;;
5890;SDS011;2971;52.420;7.080;2022-10-16T17:56:59;17.10;;;5.67;;